Kezdőlap
METAR-TAF:

METAR-TAF

Repülőterek :

Monbetsu, Japán

földrajzi szélesség: 44-15N, földrajzi hosszúság: 143-32E, magasság: 6 m

Jelenlegi meteorológiai megfigyelések

A jelentés 11 órával és 5 perccel ezelõtt készült, 07:00 UTC
Kelet-délkeleti szél 6 kt
Hőmérséklet 9°C
Páratartalom 76%
Légköri nyomás 1020 hPa
Látótávolság 10 km, vagy több
Kevés felhő 6000 lábon
Szórványos felhőzet 7000 lábon
Szakadozott felhőzet 9000 lábon
enyhe záporok,

METAR: RJEB 120700Z 12006KT 9999 -SHRA FEW060 SCT070 BKN090 09/05 Q1020

Idő: 03:05 (18:05 UTC)


TAF: hiányzik

Meteorológiai megfigyelések és előrejelzések több, mint 4000 repülőtéren (METAR és TAF jelentéseket).

A térképen piros és sárga pontok jelzik az elérhető meteorológiai állomásokat.

Mozgassa az egeret a pont fölött, hogy megjelenjen az állomás neve.

Azután kattintson az időjárási megfigyelések és előrejelzések megtekintéséhez.

A térkép megváltoztatása: kattintson a fekete keresztel jelölt zöld gombra ráközelítéshez, a vonallal jelölt zöld gombra távolításhoz, vagy a zöld nyilakra a szomszédos térképek eléréséhez.


METAR-TAF: